createdAt,value
2017-09-12T00:00:17.817Z,22.27
2017-09-12T00:02:44.219Z,21.90
2017-09-12T00:05:10.720Z,17.33
2017-09-12T00:07:37.154Z,18.73
2017-09-12T00:10:03.693Z,19.60
2017-09-12T00:12:30.126Z,25.17
2017-09-12T00:14:56.561Z,32.30
2017-09-12T00:17:22.996Z,20.30
2017-09-12T00:19:49.430Z,23.23
2017-09-12T00:22:15.886Z,26.03
2017-09-12T00:24:42.402Z,22.60
2017-09-12T00:27:08.837Z,26.23
2017-09-12T00:29:35.272Z,18.93
2017-09-12T00:32:01.707Z,22.93
2017-09-12T00:34:28.142Z,32.40
2017-09-12T00:36:54.685Z,23.87
2017-09-12T00:39:21.218Z,20.27
2017-09-12T00:41:47.620Z,20.97
2017-09-12T00:44:14.113Z,30.70
2017-09-12T00:46:40.628Z,20.03
2017-09-12T00:49:07.025Z,16.50
2017-09-12T00:51:33.593Z,17.70
2017-09-12T00:54:00.032Z,26.23
2017-09-12T00:56:26.443Z,25.43
2017-09-12T00:58:52.898Z,27.47
2017-09-12T01:01:19.746Z,30.33
2017-09-12T01:03:46.182Z,17.83
2017-09-12T01:06:12.586Z,19.80
2017-09-12T01:08:39.046Z,23.20
2017-09-12T01:11:05.480Z,36.73
2017-09-12T01:13:31.915Z,30.03
2017-09-12T01:15:58.353Z,26.90
2017-09-12T01:18:25.399Z,21.80
2017-09-12T01:20:51.835Z,20.77
2017-09-12T01:23:18.215Z,31.50
2017-09-12T01:25:44.702Z,26.73
2017-09-12T01:28:11.138Z,23.00
2017-09-12T01:30:37.571Z,26.60
2017-09-12T01:33:04.009Z,39.80
2017-09-12T01:35:30.443Z,21.63
2017-09-12T01:37:56.878Z,29.30
2017-09-12T01:40:23.266Z,29.93
2017-09-12T01:42:49.734Z,16.40
2017-09-12T01:45:16.127Z,20.63
2017-09-12T01:47:42.599Z,34.63
2017-09-12T01:50:09.664Z,26.63
2017-09-12T01:52:36.083Z,35.33
2017-09-12T01:55:02.524Z,21.90
2017-09-12T01:57:28.966Z,28.63
2017-09-12T01:59:55.385Z,26.40
2017-09-12T02:02:21.797Z,19.60
2017-09-12T02:04:48.994Z,21.00
2017-09-12T02:07:15.449Z,25.77
2017-09-12T02:09:41.862Z,28.20
2017-09-12T02:12:08.253Z,25.10
2017-09-12T02:14:34.716Z,26.00
2017-09-12T02:17:01.179Z,30.67
2017-09-12T02:19:27.577Z,33.97
2017-09-12T02:21:54.036Z,25.70
2017-09-12T02:24:20.575Z,30.80
2017-09-12T02:26:46.928Z,21.60
2017-09-12T02:29:13.443Z,25.23
2017-09-12T02:31:39.879Z,16.23
2017-09-12T02:34:06.418Z,20.33
2017-09-12T02:36:32.855Z,25.67
2017-09-12T02:38:59.235Z,23.67
2017-09-12T02:41:25.722Z,35.37
2017-09-12T02:43:52.165Z,16.50
2017-09-12T02:46:18.592Z,27.20
2017-09-12T02:48:44.924Z,24.53
2017-09-12T02:51:11.373Z,35.50
2017-09-12T02:53:38.545Z,28.23
2017-09-12T02:56:04.948Z,29.57
2017-09-12T02:58:31.382Z,20.47
2017-09-12T03:00:57.844Z,29.20
2017-09-12T03:03:24.251Z,24.40
2017-09-12T03:05:50.684Z,28.30
2017-09-12T03:08:17.119Z,29.67
2017-09-12T03:10:43.557Z,49.10
2017-09-12T03:13:10.023Z,17.80
2017-09-12T03:15:36.444Z,22.90
2017-09-12T03:18:02.861Z,20.73
2017-09-12T03:20:29.296Z,25.60
2017-09-12T03:22:55.729Z,18.27
2017-09-12T03:25:22.164Z,27.23
2017-09-12T03:27:48.601Z,27.20
2017-09-12T03:30:14.970Z,20.80
2017-09-12T03:32:41.487Z,23.23
2017-09-12T03:35:07.877Z,22.73
2017-09-12T03:37:34.320Z,22.13
2017-09-12T03:40:00.785Z,25.77
2017-09-12T03:42:27.207Z,26.13
2017-09-12T03:44:53.627Z,20.93
2017-09-12T03:47:20.068Z,22.20
2017-09-12T03:49:46.484Z,14.77
2017-09-12T03:52:12.947Z,21.50
2017-09-12T03:54:39.391Z,23.13
2017-09-12T03:57:05.767Z,25.23
2017-09-12T03:59:32.232Z,26.53
2017-09-12T04:01:58.687Z,31.23
2017-09-12T04:04:25.122Z,31.43
2017-09-12T04:06:51.535Z,20.60
2017-09-12T04:09:17.941Z,23.93
2017-09-12T04:11:44.427Z,31.63
2017-09-12T04:14:10.838Z,15.17
2017-09-12T04:16:37.279Z,18.40
2017-09-12T04:19:03.731Z,20.27
2017-09-12T04:21:30.167Z,21.50
2017-09-12T04:23:56.601Z,26.50
2017-09-12T04:26:23.043Z,31.17
2017-09-12T04:28:49.427Z,24.70
2017-09-12T04:31:15.906Z,26.03
2017-09-12T04:33:42.292Z,16.87
2017-09-12T04:36:08.776Z,27.63
2017-09-12T04:38:35.210Z,25.90
2017-09-12T04:41:01.600Z,23.97
2017-09-12T04:43:28.075Z,19.33
2017-09-12T04:45:54.495Z,28.83
2017-09-12T04:48:20.951Z,32.20
2017-09-12T04:50:47.388Z,31.93
2017-09-12T04:53:13.820Z,25.00
2017-09-12T04:55:40.152Z,23.07
2017-09-12T04:58:06.535Z,26.90
2017-09-12T05:00:32.920Z,22.23
2017-09-12T05:02:59.355Z,43.67
2017-09-12T05:05:25.790Z,26.73
2017-09-12T05:07:52.635Z,21.40
2017-09-12T05:10:19.087Z,19.60
2017-09-12T05:12:45.451Z,22.40
2017-09-12T05:15:11.942Z,21.37
2017-09-12T05:17:38.374Z,27.70
2017-09-12T05:20:04.765Z,18.67
2017-09-12T05:22:31.235Z,25.27
2017-09-12T05:24:57.679Z,23.87
2017-09-12T05:27:24.114Z,27.67
2017-09-12T05:29:50.568Z,23.70
2017-09-12T05:32:16.998Z,19.23
2017-09-12T05:34:43.418Z,29.43
2017-09-12T05:37:09.853Z,34.37
2017-09-12T05:39:36.239Z,26.10
2017-09-12T05:42:02.723Z,21.73
2017-09-12T05:44:29.157Z,19.90
2017-09-12T05:46:55.589Z,26.70
2017-09-12T05:49:22.028Z,20.20
2017-09-12T05:51:48.462Z,24.63
2017-09-12T05:54:14.898Z,19.33
2017-09-12T05:56:41.279Z,17.47
2017-09-12T05:59:07.752Z,23.73
2017-09-12T06:01:34.206Z,20.43
2017-09-12T06:04:00.638Z,29.83
2017-09-12T06:06:27.077Z,31.53
2017-09-12T06:08:53.600Z,27.83
2017-09-12T06:11:20.046Z,22.00
2017-09-12T06:13:46.785Z,23.40
2017-09-12T06:16:13.221Z,25.80
2017-09-12T06:18:39.655Z,27.00
2017-09-12T06:21:06.094Z,25.17
2017-09-12T06:23:32.475Z,17.03
2017-09-12T06:25:58.911Z,24.50
2017-09-12T06:28:25.294Z,19.90
2017-09-12T06:30:51.728Z,25.07
2017-09-12T06:33:18.183Z,23.87
2017-09-12T06:35:44.701Z,21.10
2017-09-12T06:38:11.341Z,26.53
2017-09-12T06:40:37.776Z,26.57
2017-09-12T06:43:04.212Z,17.97
2017-09-12T06:45:30.644Z,19.03
2017-09-12T06:47:57.388Z,20.30
2017-09-12T06:50:23.843Z,18.10
2017-09-12T06:52:50.260Z,29.47
2017-09-12T06:55:16.694Z,31.93
2017-09-12T06:57:43.129Z,24.43
2017-09-12T07:00:09.510Z,15.90
2017-09-12T07:02:35.996Z,19.77
2017-09-12T07:05:02.432Z,26.13
2017-09-12T07:07:28.866Z,22.53
2017-09-12T07:09:55.301Z,22.63
2017-09-12T07:12:21.735Z,25.80
2017-09-12T07:14:48.136Z,29.77
2017-09-12T07:17:14.504Z,20.60
2017-09-12T07:19:41.758Z,23.53
2017-09-12T07:22:08.189Z,20.07
2017-09-12T07:24:34.627Z,22.47
2017-09-12T07:27:01.062Z,21.97
2017-09-12T07:29:27.497Z,15.40
2017-09-12T07:31:53.932Z,20.73
2017-09-12T07:34:20.366Z,17.97
2017-09-12T07:36:47.314Z,19.60
2017-09-12T07:39:13.750Z,16.23
2017-09-12T07:41:40.185Z,15.80
2017-09-12T07:44:06.927Z,20.20
2017-09-12T07:46:33.360Z,17.20
2017-09-12T07:48:59.753Z,18.10
2017-09-12T07:51:26.233Z,14.83
2017-09-12T07:53:52.648Z,22.43
2017-09-12T07:56:19.389Z,20.73
2017-09-12T07:58:45.843Z,24.23
2017-09-12T08:01:12.227Z,15.13
2017-09-12T08:03:38.693Z,23.43
2017-09-12T08:06:05.249Z,14.50
2017-09-12T08:08:32.097Z,18.60
2017-09-12T08:10:58.525Z,26.70
2017-09-12T08:13:25.835Z,45.23
2017-09-12T08:15:52.736Z,16.10
2017-09-12T08:18:19.574Z,23.63
2017-09-12T08:20:46.009Z,21.67
2017-09-12T08:23:12.451Z,15.70
2017-09-12T08:25:39.084Z,23.70
2017-09-12T08:28:05.621Z,20.60
2017-09-12T08:30:33.285Z,16.43
2017-09-12T08:33:00.358Z,26.43
2017-09-12T08:35:26.853Z,29.83
2017-09-12T08:37:53.717Z,14.50
2017-09-12T08:40:20.462Z,16.40
2017-09-12T08:42:47.615Z,26.53
2017-09-12T08:45:14.355Z,19.97
2017-09-12T08:47:40.991Z,22.40
2017-09-12T08:50:07.631Z,15.70
2017-09-12T08:52:34.692Z,20.33
2017-09-12T08:55:01.320Z,12.50
2017-09-12T08:57:27.959Z,18.10
2017-09-12T08:59:54.787Z,17.33
2017-09-12T09:02:21.498Z,21.87
2017-09-12T09:04:48.084Z,24.53
2017-09-12T09:07:14.519Z,19.33
2017-09-12T09:09:41.076Z,16.33
2017-09-12T09:12:07.594Z,25.97
2017-09-12T09:14:34.133Z,19.60
2017-09-12T09:17:01.591Z,14.90
2017-09-12T09:19:28.025Z,19.20
2017-09-12T09:21:54.459Z,19.33
2017-09-12T09:24:20.894Z,13.60
2017-09-12T09:26:47.635Z,14.80
2017-09-12T09:29:14.068Z,20.50
2017-09-12T09:31:40.462Z,17.80
2017-09-12T09:34:08.170Z,12.23
2017-09-12T09:36:34.605Z,12.77
2017-09-12T09:39:01.640Z,13.53
2017-09-12T09:41:28.396Z,12.77
2017-09-12T09:43:54.935Z,9.80
2017-09-12T09:46:21.396Z,14.10
2017-09-12T09:48:48.214Z,10.07
2017-09-12T09:51:14.948Z,17.47
2017-09-12T09:53:41.799Z,18.67
2017-09-12T09:56:08.221Z,11.50
2017-09-12T09:58:34.640Z,10.03
2017-09-12T10:01:01.310Z,12.60
2017-09-12T10:03:27.853Z,10.33
2017-09-12T10:05:55.156Z,21.80
2017-09-12T10:08:22.229Z,26.13
2017-09-12T10:10:48.891Z,15.90
2017-09-12T10:13:15.275Z,28.00
2017-09-12T10:15:41.969Z,14.93
2017-09-12T10:18:08.581Z,13.13
2017-09-12T10:20:35.249Z,10.60
2017-09-12T10:23:01.683Z,17.67
2017-09-12T10:25:28.392Z,61.67
2017-09-12T10:27:54.854Z,11.50
2017-09-12T10:30:21.396Z,19.57
2017-09-12T10:32:47.933Z,21.27
2017-09-12T10:35:14.316Z,20.50
2017-09-12T10:37:40.775Z,24.53
2017-09-12T10:40:07.602Z,6.90
2017-09-12T10:42:34.799Z,11.83
2017-09-12T10:45:01.234Z,9.80
2017-09-12T10:47:27.794Z,12.90
2017-09-12T10:49:54.717Z,11.03
2017-09-12T10:52:21.153Z,18.73
2017-09-12T10:54:47.587Z,9.73
2017-09-12T10:57:14.244Z,7.13
2017-09-12T10:59:40.842Z,9.03
2017-09-12T11:02:07.280Z,8.93
2017-09-12T11:04:33.769Z,39.60
2017-09-12T11:07:00.729Z,18.23
2017-09-12T11:09:27.177Z,28.93
2017-09-12T11:11:53.653Z,19.00
2017-09-12T11:14:20.309Z,18.80
2017-09-12T11:16:46.784Z,11.53
2017-09-12T11:19:13.186Z,10.73
2017-09-12T11:21:39.601Z,16.50
2017-09-12T11:24:06.343Z,13.90
2017-09-12T11:26:33.007Z,17.60
2017-09-12T11:28:59.404Z,14.73
2017-09-12T11:31:26.187Z,47.13
2017-09-12T11:33:52.890Z,24.27
2017-09-12T11:36:19.314Z,17.47
2017-09-12T11:38:45.977Z,13.30
2017-09-12T11:41:12.411Z,16.03
2017-09-12T11:43:38.846Z,31.00
2017-09-12T11:46:05.280Z,21.50
2017-09-12T11:48:31.716Z,14.53
2017-09-12T11:50:58.278Z,14.77
2017-09-12T11:53:24.996Z,25.57
2017-09-12T11:55:51.533Z,19.73
2017-09-12T11:58:18.073Z,16.03
2017-09-12T12:00:44.638Z,17.97
2017-09-12T12:03:11.248Z,9.30
2017-09-12T12:05:38.075Z,12.37
2017-09-12T12:08:07.352Z,6.33
2017-09-12T12:10:34.136Z,8.30
2017-09-12T12:13:01.187Z,12.27
2017-09-12T12:15:27.929Z,13.13
2017-09-12T12:17:54.508Z,11.30
2017-09-12T12:20:21.159Z,14.13
2017-09-12T12:22:47.745Z,9.00
2017-09-12T12:25:14.182Z,16.33
2017-09-12T12:27:40.716Z,8.20
2017-09-12T12:30:07.130Z,7.50
2017-09-12T12:32:33.573Z,5.37
2017-09-12T12:35:00.841Z,12.63
2017-09-12T12:37:27.360Z,6.10
2017-09-12T12:39:53.934Z,6.20
2017-09-12T12:42:20.448Z,7.70
2017-09-12T12:44:47.194Z,7.53
2017-09-12T12:47:13.732Z,4.90
2017-09-12T12:49:40.165Z,7.03
2017-09-12T12:52:07.011Z,3.50
2017-09-12T12:54:33.759Z,3.17
2017-09-12T12:57:00.189Z,5.47
2017-09-12T12:59:27.254Z,7.00
2017-09-12T13:01:53.672Z,7.10
2017-09-12T13:04:20.265Z,5.00
2017-09-12T13:06:47.259Z,3.80
2017-09-12T13:09:13.693Z,20.00
2017-09-12T13:11:40.129Z,5.80
2017-09-12T13:14:06.795Z,4.10
2017-09-12T13:16:33.401Z,4.33
2017-09-12T13:18:59.794Z,5.67
2017-09-12T13:21:26.382Z,4.77
2017-09-12T13:23:53.328Z,7.00
2017-09-12T13:26:19.717Z,2.90
2017-09-12T13:28:46.094Z,3.00
2017-09-12T13:31:12.529Z,6.40
2017-09-12T13:33:38.917Z,5.07
2017-09-12T13:36:05.372Z,7.03
2017-09-12T13:38:31.936Z,4.73
2017-09-12T13:40:58.322Z,3.67
2017-09-12T13:43:24.704Z,3.53
2017-09-12T13:45:52.195Z,3.53
2017-09-12T13:48:18.803Z,3.20
2017-09-12T13:50:45.790Z,2.83
2017-09-12T13:53:12.335Z,3.23
2017-09-12T13:55:39.032Z,3.60
2017-09-12T13:58:05.541Z,4.80
2017-09-12T14:00:33.640Z,3.30
2017-09-12T14:03:00.075Z,12.23
2017-09-12T14:05:26.716Z,3.57
2017-09-12T14:07:53.821Z,3.93
2017-09-12T14:10:20.353Z,15.53
2017-09-12T14:12:46.790Z,4.50
2017-09-12T14:15:13.788Z,11.27
2017-09-12T14:17:40.527Z,4.70
2017-09-12T14:20:06.914Z,6.47
2017-09-12T14:22:34.010Z,8.00
2017-09-12T14:25:00.575Z,8.17
2017-09-12T14:27:27.087Z,5.77
2017-09-12T14:29:54.135Z,4.53
2017-09-12T14:32:20.775Z,8.63
2017-09-12T14:34:47.150Z,15.13
2017-09-12T14:37:13.746Z,6.33
2017-09-12T14:39:40.183Z,6.17
2017-09-12T14:42:06.552Z,7.90
2017-09-12T14:44:33.051Z,4.50
2017-09-12T14:46:59.588Z,4.10
2017-09-12T14:49:25.945Z,4.83
2017-09-12T14:51:52.356Z,4.50
2017-09-12T14:54:18.739Z,5.93
2017-09-12T14:56:45.167Z,7.67
2017-09-12T14:59:16.668Z,7.80
2017-09-12T15:01:43.770Z,6.23
2017-09-12T15:04:10.215Z,5.40
2017-09-12T15:06:36.805Z,9.17
2017-09-12T15:09:03.362Z,7.37
2017-09-12T15:11:29.776Z,7.30
2017-09-12T15:13:56.632Z,4.60
2017-09-12T15:16:23.063Z,6.67
2017-09-12T15:18:49.489Z,7.80
2017-09-12T15:21:15.871Z,6.40
2017-09-12T15:23:42.358Z,4.17
2017-09-12T15:26:08.794Z,9.27
2017-09-12T15:28:35.229Z,6.00
2017-09-12T15:31:01.615Z,7.17
2017-09-12T15:33:28.768Z,4.30
2017-09-12T15:35:55.199Z,6.70
2017-09-12T15:38:21.689Z,4.60
2017-09-12T15:40:48.120Z,7.23
2017-09-12T15:43:14.540Z,9.43
2017-09-12T15:45:40.990Z,4.20
2017-09-12T15:48:07.401Z,4.67
2017-09-12T15:50:34.670Z,3.97
2017-09-12T15:53:01.118Z,4.10
2017-09-12T15:55:27.651Z,9.73
2017-09-12T15:57:54.086Z,9.30
2017-09-12T16:00:20.523Z,3.97
2017-09-12T16:02:46.956Z,5.90
2017-09-12T16:05:13.391Z,9.80
2017-09-12T16:07:40.590Z,3.83
2017-09-12T16:10:07.062Z,4.63
2017-09-12T16:12:33.529Z,6.40
2017-09-12T16:14:59.971Z,33.27
2017-09-12T16:17:26.384Z,8.53
2017-09-12T16:19:52.818Z,11.07
2017-09-12T16:22:19.256Z,12.20
2017-09-12T16:24:46.509Z,8.80
2017-09-12T16:27:13.355Z,14.43
2017-09-12T16:29:39.788Z,15.73
2017-09-12T16:32:06.226Z,11.27
2017-09-12T16:34:32.657Z,18.40
2017-09-12T16:36:59.095Z,12.63
2017-09-12T16:39:25.487Z,13.30
2017-09-12T16:41:51.963Z,14.60
2017-09-12T16:44:18.397Z,12.97
2017-09-12T16:46:44.780Z,10.43
2017-09-12T16:49:11.985Z,19.60
2017-09-12T16:51:38.419Z,13.93
2017-09-12T16:54:04.854Z,10.63
2017-09-12T16:56:31.289Z,10.40
2017-09-12T16:58:57.639Z,11.90
2017-09-12T17:01:24.056Z,10.43
2017-09-12T17:03:50.494Z,10.83
2017-09-12T17:06:17.642Z,10.87
2017-09-12T17:08:44.100Z,10.43
2017-09-12T17:11:10.487Z,10.80
2017-09-12T17:13:36.948Z,16.83
2017-09-12T17:16:03.383Z,10.83
2017-09-12T17:18:29.773Z,13.33
2017-09-12T17:20:56.154Z,10.93
2017-09-12T17:23:23.404Z,7.93
2017-09-12T17:25:49.840Z,13.07
2017-09-12T17:28:16.275Z,9.93
2017-09-12T17:30:42.707Z,7.40
2017-09-12T17:33:09.144Z,8.03
2017-09-12T17:35:35.680Z,13.87
2017-09-12T17:38:02.108Z,7.80
2017-09-12T17:40:29.272Z,12.43
2017-09-12T17:42:55.702Z,11.57
2017-09-12T17:45:22.136Z,10.87
2017-09-12T17:47:48.590Z,10.47
2017-09-12T17:50:15.015Z,10.40
2017-09-12T17:52:41.441Z,8.73
2017-09-12T17:55:07.877Z,6.33
2017-09-12T17:57:35.028Z,5.70
2017-09-12T18:00:01.464Z,6.37
2017-09-12T18:02:27.887Z,11.07
2017-09-12T18:04:54.287Z,6.00
2017-09-12T18:07:20.749Z,7.93
2017-09-12T18:09:47.221Z,17.33
2017-09-12T18:12:13.740Z,7.00
2017-09-12T18:14:40.790Z,8.10
2017-09-12T18:17:07.224Z,11.40
2017-09-12T18:19:33.659Z,11.20
2017-09-12T18:22:00.095Z,12.17
2017-09-12T18:24:26.530Z,12.93
2017-09-12T18:26:52.965Z,18.73
2017-09-12T18:29:19.502Z,14.00
2017-09-12T18:31:46.654Z,16.70
2017-09-12T18:34:13.039Z,14.73
2017-09-12T18:36:39.523Z,19.27
2017-09-12T18:39:05.906Z,14.83
2017-09-12T18:41:32.375Z,15.80
2017-09-12T18:43:58.817Z,17.23
2017-09-12T18:46:25.212Z,17.80
2017-09-12T18:48:52.299Z,14.10
2017-09-12T18:51:18.747Z,10.77
2017-09-12T18:53:45.181Z,14.83
2017-09-12T18:56:11.620Z,10.63
2017-09-12T18:58:38.052Z,13.27
2017-09-12T19:01:04.486Z,12.30
2017-09-12T19:03:30.922Z,13.27
2017-09-12T19:05:58.177Z,14.13
2017-09-12T19:08:24.610Z,20.37
2017-09-12T19:10:51.047Z,16.23
2017-09-12T19:13:17.481Z,11.17
2017-09-12T19:15:43.863Z,24.93
2017-09-12T19:18:10.299Z,22.50
2017-09-12T19:20:36.791Z,22.90
2017-09-12T19:23:03.887Z,15.80
2017-09-12T19:25:30.346Z,12.67
2017-09-12T19:27:56.806Z,16.07
2017-09-12T19:30:23.198Z,10.30
2017-09-12T19:32:49.676Z,16.43
2017-09-12T19:35:16.112Z,17.67
2017-09-12T19:37:42.546Z,12.80
2017-09-12T19:40:09.697Z,15.67
2017-09-12T19:42:36.132Z,16.10
2017-09-12T19:45:02.568Z,11.60
2017-09-12T19:47:28.956Z,13.90
2017-09-12T19:49:55.437Z,10.77
2017-09-12T19:52:21.872Z,18.03
2017-09-12T19:54:48.262Z,20.83
2017-09-12T19:57:15.512Z,12.10
2017-09-12T19:59:42.018Z,14.57
2017-09-12T20:02:08.431Z,16.13
2017-09-12T20:04:34.865Z,15.47
2017-09-12T20:07:01.301Z,12.60
2017-09-12T20:09:27.736Z,14.80
2017-09-12T20:11:54.171Z,17.47
2017-09-12T20:14:20.605Z,20.70
2017-09-12T20:16:46.958Z,17.93
2017-09-12T20:19:13.373Z,14.00
2017-09-12T20:21:39.807Z,19.93
2017-09-12T20:24:06.243Z,11.10
2017-09-12T20:26:32.700Z,16.43
2017-09-12T20:28:59.060Z,16.90
2017-09-12T20:31:26.315Z,19.37
2017-09-12T20:33:52.801Z,24.57
2017-09-12T20:36:19.236Z,21.23
2017-09-12T20:38:45.773Z,25.63
2017-09-12T20:41:12.123Z,14.63
2017-09-12T20:43:38.541Z,17.63
2017-09-12T20:46:04.961Z,17.17
2017-09-12T20:48:32.227Z,15.70
2017-09-12T20:50:58.664Z,16.57
2017-09-12T20:53:25.102Z,20.93
2017-09-12T20:55:51.483Z,14.90
2017-09-12T20:58:17.868Z,15.40
2017-09-12T21:00:44.408Z,20.97
2017-09-12T21:03:10.839Z,23.10
2017-09-12T21:05:38.115Z,22.23
2017-09-12T21:08:04.632Z,28.03
2017-09-12T21:10:31.067Z,20.97
2017-09-12T21:12:57.503Z,19.53
2017-09-12T21:15:23.941Z,23.63
2017-09-12T21:17:50.374Z,23.87
2017-09-12T21:20:16.808Z,22.77
2017-09-12T21:22:43.959Z,26.10
2017-09-12T21:25:10.393Z,20.73
2017-09-12T21:27:36.828Z,22.93
2017-09-12T21:30:03.263Z,16.07
2017-09-12T21:32:29.697Z,15.30
2017-09-12T21:34:56.132Z,27.33
2017-09-12T21:37:22.586Z,18.40
2017-09-12T21:39:49.821Z,15.20
2017-09-12T21:42:16.256Z,24.40
2017-09-12T21:44:42.686Z,14.80
2017-09-12T21:47:09.227Z,16.07
2017-09-12T21:49:35.785Z,15.90
2017-09-12T21:52:02.191Z,15.30
2017-09-12T21:54:28.635Z,14.87
2017-09-12T21:56:55.787Z,13.13
2017-09-12T21:59:22.222Z,19.93
2017-09-12T22:01:48.607Z,12.93
2017-09-12T22:04:14.955Z,13.70
2017-09-12T22:06:41.442Z,12.47
2017-09-12T22:09:07.859Z,11.80
2017-09-12T22:11:34.295Z,11.53
2017-09-12T22:14:01.392Z,13.03
2017-09-12T22:16:27.882Z,20.10
2017-09-12T22:18:54.316Z,11.67
2017-09-12T22:21:20.751Z,14.33
2017-09-12T22:23:47.188Z,11.23
2017-09-12T22:26:13.620Z,15.63
2017-09-12T22:28:40.056Z,29.20
2017-09-12T22:31:07.208Z,19.60
2017-09-12T22:33:33.643Z,16.20
2017-09-12T22:36:00.023Z,15.43
2017-09-12T22:38:26.511Z,19.33
2017-09-12T22:40:52.949Z,18.17
2017-09-12T22:43:19.381Z,17.47
2017-09-12T22:45:45.819Z,17.47
2017-09-12T22:48:12.252Z,16.70
2017-09-12T22:50:38.639Z,16.10
2017-09-12T22:53:04.986Z,22.17
2017-09-12T22:55:32.250Z,20.43
2017-09-12T22:57:58.709Z,18.80
2017-09-12T23:00:25.142Z,24.37
2017-09-12T23:02:51.680Z,22.20
2017-09-12T23:05:18.115Z,21.43
2017-09-12T23:07:44.549Z,20.77
2017-09-12T23:10:10.986Z,18.03
2017-09-12T23:12:38.238Z,18.83
2017-09-12T23:15:04.674Z,19.00
2017-09-12T23:17:31.108Z,29.90
2017-09-12T23:19:57.550Z,21.10
2017-09-12T23:22:23.978Z,22.20
2017-09-12T23:24:50.413Z,18.23
2017-09-12T23:27:16.799Z,24.43
2017-09-12T23:29:43.897Z,17.17
2017-09-12T23:32:10.283Z,19.07
2017-09-12T23:34:36.759Z,17.13
2017-09-12T23:37:03.201Z,17.73
2017-09-12T23:39:29.739Z,19.60
2017-09-12T23:41:56.174Z,14.30
2017-09-12T23:44:22.609Z,15.37
2017-09-12T23:46:49.658Z,18.87
2017-09-12T23:49:16.049Z,14.90
2017-09-12T23:51:42.481Z,13.40
2017-09-12T23:54:08.963Z,17.43
2017-09-12T23:56:35.398Z,17.33
2017-09-12T23:59:01.854Z,14.87
